createdAt,value
2023-03-15T00:00:36.623Z,70.99
2023-03-15T00:03:25.796Z,70.53
2023-03-15T00:05:58.535Z,70.20
2023-03-15T00:08:33.334Z,69.50
2023-03-15T00:11:06.364Z,69.47
2023-03-15T00:13:38.928Z,69.41
2023-03-15T00:16:12.085Z,69.58
2023-03-15T00:18:45.275Z,70.06
2023-03-15T00:21:18.045Z,69.94
2023-03-15T00:23:50.795Z,70.02
2023-03-15T00:26:23.388Z,70.08
2023-03-15T00:28:56.142Z,69.63
2023-03-15T00:31:29.070Z,69.74
2023-03-15T00:34:02.081Z,69.77
2023-03-15T00:36:38.030Z,69.35
2023-03-15T00:39:10.844Z,69.76
2023-03-15T00:41:46.020Z,69.71
2023-03-15T00:44:18.922Z,69.49
2023-03-15T00:46:51.429Z,68.93
2023-03-15T00:49:23.929Z,69.09
2023-03-15T00:51:58.740Z,68.34
2023-03-15T00:54:33.547Z,68.28
2023-03-15T00:57:06.413Z,68.43
2023-03-15T00:59:39.410Z,68.60
2023-03-15T01:02:14.137Z,68.49
2023-03-15T01:04:46.886Z,68.67
2023-03-15T01:07:19.681Z,68.67
2023-03-15T01:09:53.828Z,68.66
2023-03-15T01:12:26.366Z,68.63
2023-03-15T01:14:59.689Z,68.29
2023-03-15T01:17:32.315Z,68.04
2023-03-15T01:20:10.214Z,68.36
2023-03-15T01:22:43.116Z,68.57
2023-03-15T01:25:16.028Z,68.39
2023-03-15T01:27:50.100Z,68.62
2023-03-15T01:30:22.605Z,68.90
2023-03-15T01:32:55.742Z,69.07
2023-03-15T01:35:29.333Z,69.04
2023-03-15T01:38:01.765Z,68.27
2023-03-15T01:40:36.513Z,67.90
2023-03-15T01:43:18.272Z,68.30
2023-03-15T01:46:08.138Z,68.60
2023-03-15T01:48:51.163Z,68.75
2023-03-15T01:51:35.766Z,68.71
2023-03-15T01:54:14.380Z,68.87
2023-03-15T01:56:53.427Z,68.51
2023-03-15T01:59:31.816Z,68.61
2023-03-15T02:02:06.461Z,68.58
2023-03-15T02:04:46.488Z,68.91
2023-03-15T02:07:23.132Z,68.52
2023-03-15T02:10:02.505Z,69.17
2023-03-15T02:12:40.026Z,69.32
2023-03-15T02:15:15.009Z,69.07
2023-03-15T02:17:52.150Z,68.40
2023-03-15T02:20:35.703Z,68.56
2023-03-15T02:23:13.717Z,68.64
2023-03-15T02:25:56.041Z,68.38
2023-03-15T02:28:29.203Z,68.70
2023-03-15T02:31:01.910Z,68.29
2023-03-15T02:33:40.414Z,67.56
2023-03-15T02:36:17.008Z,67.13
2023-03-15T02:38:51.417Z,67.01
2023-03-15T02:41:27.818Z,66.92
2023-03-15T02:44:05.030Z,66.94
2023-03-15T02:46:39.070Z,67.37
2023-03-15T02:49:13.015Z,67.19
2023-03-15T02:51:45.602Z,67.55
2023-03-15T02:54:18.154Z,67.51
2023-03-15T02:56:51.507Z,67.43
2023-03-15T02:59:24.093Z,67.01
2023-03-15T03:01:57.000Z,66.76
2023-03-15T03:04:29.494Z,66.98
2023-03-15T03:07:02.318Z,67.12
2023-03-15T03:09:40.583Z,67.01
2023-03-15T03:12:15.422Z,67.13
2023-03-15T03:14:48.489Z,67.26
2023-03-15T03:17:23.155Z,67.04
2023-03-15T03:19:55.600Z,66.95
2023-03-15T03:22:32.362Z,67.34
2023-03-15T03:25:07.044Z,67.46
2023-03-15T03:27:39.649Z,67.38
2023-03-15T03:30:16.395Z,67.12
2023-03-15T03:32:53.968Z,66.74
2023-03-15T03:35:26.826Z,66.56
2023-03-15T03:38:00.896Z,66.94
2023-03-15T03:40:39.649Z,67.17
2023-03-15T03:43:12.444Z,66.85
2023-03-15T03:45:45.339Z,66.90
2023-03-15T03:48:17.811Z,67.13
2023-03-15T03:50:50.785Z,67.19
2023-03-15T03:53:23.987Z,67.40
2023-03-15T03:55:56.470Z,67.34
2023-03-15T03:58:29.765Z,67.60
2023-03-15T04:01:07.415Z,67.94
2023-03-15T04:03:40.301Z,67.73
2023-03-15T04:06:17.366Z,67.58
2023-03-15T04:08:52.252Z,67.47
2023-03-15T04:11:36.460Z,67.62
2023-03-15T04:14:12.298Z,67.55
2023-03-15T04:16:45.787Z,67.75
2023-03-15T04:19:21.871Z,67.30
2023-03-15T04:21:55.323Z,67.12
2023-03-15T04:24:56.940Z,67.62
2023-03-15T04:27:59.038Z,67.91
2023-03-15T04:30:50.961Z,67.25
2023-03-15T04:33:46.510Z,66.90
2023-03-15T04:36:43.692Z,66.58
2023-03-15T04:39:22.237Z,66.28
2023-03-15T04:42:07.920Z,66.11
2023-03-15T04:45:00.650Z,66.49
2023-03-15T04:48:03.076Z,66.90
2023-03-15T04:50:57.864Z,66.46
2023-03-15T04:53:44.954Z,66.50
2023-03-15T04:56:38.168Z,67.37
2023-03-15T04:59:28.294Z,68.06
2023-03-15T05:02:29.985Z,67.61
2023-03-15T05:05:27.138Z,68.11
2023-03-15T05:08:13.557Z,68.51
2023-03-15T05:11:09.975Z,68.35
2023-03-15T05:14:02.088Z,68.34
2023-03-15T05:16:48.493Z,69.04
2023-03-15T05:19:36.703Z,68.70
2023-03-15T05:22:29.726Z,69.02
2023-03-15T05:25:20.923Z,69.49
2023-03-15T05:28:21.189Z,68.91
2023-03-15T05:31:29.448Z,69.11
2023-03-15T05:34:30.329Z,68.96
2023-03-15T05:37:29.177Z,68.80
2023-03-15T05:40:25.355Z,68.10
2023-03-15T05:43:07.441Z,68.22
2023-03-15T05:45:58.904Z,67.61
2023-03-15T05:49:07.604Z,67.08
2023-03-15T05:51:56.067Z,66.84
2023-03-15T05:54:50.522Z,67.71
2023-03-15T05:57:43.352Z,68.00
2023-03-15T06:00:34.851Z,68.55
2023-03-15T06:03:09.383Z,68.33
2023-03-15T06:05:51.052Z,68.65
2023-03-15T06:08:29.388Z,68.82
2023-03-15T06:11:02.474Z,68.60
2023-03-15T06:13:35.726Z,68.65
2023-03-15T06:16:13.299Z,68.43
2023-03-15T06:18:50.670Z,68.33
2023-03-15T06:21:25.980Z,68.72
2023-03-15T06:23:58.889Z,69.76
2023-03-15T06:26:31.647Z,69.34
2023-03-15T06:29:09.058Z,69.20
2023-03-15T06:31:42.155Z,69.35
2023-03-15T06:34:15.443Z,69.59
2023-03-15T06:36:49.550Z,69.26
2023-03-15T06:39:25.335Z,69.02
2023-03-15T06:42:02.577Z,68.87
2023-03-15T06:44:38.999Z,68.84
2023-03-15T06:47:12.496Z,69.31
2023-03-15T06:49:45.362Z,69.23
2023-03-15T06:52:20.675Z,69.79
2023-03-15T06:54:55.402Z,70.52
2023-03-15T06:57:28.506Z,69.83
2023-03-15T07:00:00.914Z,69.82
2023-03-15T07:02:37.762Z,70.11
2023-03-15T07:05:12.228Z,70.06
2023-03-15T07:07:44.928Z,70.28
2023-03-15T07:10:17.191Z,69.78
2023-03-15T07:12:49.638Z,70.04
2023-03-15T07:15:22.411Z,69.97
2023-03-15T07:17:55.255Z,69.54
2023-03-15T07:20:28.208Z,69.37
2023-03-15T07:23:01.019Z,69.40
2023-03-15T07:25:44.963Z,69.67
2023-03-15T07:28:25.995Z,69.75
2023-03-15T07:31:00.180Z,69.25
2023-03-15T07:33:35.972Z,69.78
2023-03-15T07:36:09.514Z,70.18
2023-03-15T07:38:43.368Z,69.98
2023-03-15T07:41:16.275Z,69.21
2023-03-15T07:43:58.604Z,68.34
2023-03-15T07:46:31.426Z,68.46
2023-03-15T07:49:04.331Z,67.70
2023-03-15T07:51:36.891Z,67.50
2023-03-15T07:54:09.400Z,66.74
2023-03-15T07:56:41.781Z,65.81
2023-03-15T07:59:14.247Z,65.45
2023-03-15T08:01:46.715Z,66.13
2023-03-15T08:04:19.654Z,66.06
2023-03-15T08:06:52.026Z,65.50
2023-03-15T08:09:25.075Z,65.51
2023-03-15T08:11:57.770Z,65.48
2023-03-15T08:14:31.718Z,65.68
2023-03-15T08:17:04.408Z,65.81
2023-03-15T08:19:37.419Z,66.18
2023-03-15T08:22:10.514Z,66.10
2023-03-15T08:24:43.004Z,65.54
2023-03-15T08:27:15.709Z,65.27
2023-03-15T08:29:48.196Z,65.54
2023-03-15T08:32:21.710Z,65.07
2023-03-15T08:34:54.326Z,64.84
2023-03-15T08:37:26.748Z,65.37
2023-03-15T08:40:01.252Z,64.88
2023-03-15T08:42:34.561Z,64.69
2023-03-15T08:45:08.784Z,64.04
2023-03-15T08:47:41.434Z,64.83
2023-03-15T08:50:17.215Z,64.92
2023-03-15T08:52:49.595Z,64.59
2023-03-15T08:55:22.126Z,64.81
2023-03-15T08:57:54.657Z,64.47
2023-03-15T09:00:27.899Z,64.09
2023-03-15T09:03:00.386Z,63.49
2023-03-15T09:05:33.448Z,63.41
2023-03-15T09:08:06.102Z,62.76
2023-03-15T09:10:38.511Z,62.55
2023-03-15T09:13:11.254Z,63.11
2023-03-15T09:15:43.748Z,63.49
2023-03-15T09:18:16.496Z,63.21
2023-03-15T09:20:49.477Z,61.87
2023-03-15T09:23:22.159Z,61.76
2023-03-15T09:25:54.625Z,61.80
2023-03-15T09:28:27.065Z,61.04
2023-03-15T09:31:00.211Z,59.87
2023-03-15T09:33:33.341Z,59.94
2023-03-15T09:36:06.610Z,60.52
2023-03-15T09:38:39.264Z,60.91
2023-03-15T09:41:21.529Z,60.11
2023-03-15T09:44:10.174Z,59.74
2023-03-15T09:46:53.206Z,59.25
2023-03-15T09:49:35.334Z,59.42
2023-03-15T09:52:17.821Z,59.35
2023-03-15T09:54:55.790Z,58.35
2023-03-15T09:57:37.997Z,58.40
2023-03-15T10:00:20.828Z,58.07
2023-03-15T10:03:01.646Z,57.18
2023-03-15T10:05:43.162Z,56.80
2023-03-15T10:08:19.295Z,56.97
2023-03-15T10:10:58.127Z,56.67
2023-03-15T10:13:42.496Z,56.62
2023-03-15T10:16:28.603Z,56.98
2023-03-15T10:19:15.067Z,55.69
2023-03-15T10:21:56.456Z,55.09
2023-03-15T10:24:39.027Z,55.67
2023-03-15T10:27:21.344Z,54.58
2023-03-15T10:29:56.709Z,53.04
2023-03-15T10:32:38.878Z,53.27
2023-03-15T10:35:17.726Z,54.06
2023-03-15T10:37:51.865Z,53.94
2023-03-15T10:40:41.489Z,53.91
2023-03-15T10:43:21.319Z,53.41
2023-03-15T10:46:05.412Z,52.55
2023-03-15T10:48:39.604Z,52.32
2023-03-15T10:51:21.548Z,53.36
2023-03-15T10:54:00.899Z,51.60
2023-03-15T10:56:37.210Z,51.23
2023-03-15T10:59:19.241Z,51.39
2023-03-15T11:01:55.432Z,51.08
2023-03-15T11:04:28.739Z,51.05
2023-03-15T11:07:07.743Z,51.06
2023-03-15T11:09:45.741Z,51.08
2023-03-15T11:12:25.815Z,51.33
2023-03-15T11:15:01.939Z,52.04
2023-03-15T11:17:43.080Z,52.63
2023-03-15T11:20:30.566Z,53.46
2023-03-15T11:23:07.360Z,53.88
2023-03-15T11:25:39.967Z,53.10
2023-03-15T11:28:20.507Z,52.67
2023-03-15T11:30:53.191Z,52.14
2023-03-15T11:33:34.991Z,51.84
2023-03-15T11:36:15.186Z,51.84
2023-03-15T11:38:48.559Z,50.63
2023-03-15T11:41:35.961Z,50.82
2023-03-15T11:44:19.703Z,51.19
2023-03-15T11:46:57.623Z,52.36
2023-03-15T11:49:37.988Z,53.77
2023-03-15T11:52:11.662Z,55.24
2023-03-15T11:54:45.169Z,56.08
2023-03-15T11:57:41.103Z,55.71
2023-03-15T12:00:35.690Z,58.38
2023-03-15T12:03:30.884Z,57.91
2023-03-15T12:06:06.981Z,56.06
2023-03-15T12:08:49.500Z,55.28
2023-03-15T12:11:43.009Z,56.80
2023-03-15T12:14:31.331Z,59.91
2023-03-15T12:17:42.715Z,62.15
2023-03-15T12:20:29.427Z,64.22
2023-03-15T12:23:22.552Z,63.96
2023-03-15T12:25:59.225Z,62.93
2023-03-15T12:28:36.849Z,60.20
2023-03-15T12:31:13.331Z,60.36
2023-03-15T12:33:52.377Z,59.67
2023-03-15T12:36:36.121Z,57.59
2023-03-15T12:39:39.814Z,55.39
2023-03-15T12:42:38.930Z,54.66
2023-03-15T12:45:37.664Z,54.38
2023-03-15T12:48:32.701Z,54.48
2023-03-15T12:51:16.191Z,52.66
2023-03-15T12:53:52.203Z,52.34
2023-03-15T12:56:55.427Z,53.17
2023-03-15T12:59:41.282Z,53.13
2023-03-15T13:02:42.173Z,53.98
2023-03-15T13:05:21.360Z,54.28
2023-03-15T13:08:18.864Z,54.52
2023-03-15T13:11:05.648Z,54.54
2023-03-15T13:13:56.708Z,55.17
2023-03-15T13:16:37.141Z,55.75
2023-03-15T13:19:23.642Z,56.58
2023-03-15T13:22:13.283Z,57.11
2023-03-15T13:24:52.703Z,59.09
2023-03-15T13:27:44.480Z,58.28
2023-03-15T13:30:36.151Z,56.85
2023-03-15T13:33:17.827Z,56.06
2023-03-15T13:35:56.547Z,56.75
2023-03-15T13:38:32.188Z,58.00
2023-03-15T13:41:06.672Z,59.06
2023-03-15T13:43:42.465Z,58.33
2023-03-15T13:46:15.028Z,57.57
2023-03-15T13:48:48.681Z,58.77
2023-03-15T13:51:25.465Z,57.11
2023-03-15T13:54:03.055Z,55.84
2023-03-15T13:56:49.143Z,55.30
2023-03-15T13:59:22.756Z,54.89
2023-03-15T14:01:55.873Z,57.18
2023-03-15T14:04:30.425Z,58.43
2023-03-15T14:07:24.074Z,58.98
2023-03-15T14:12:55.470Z,60.24
2023-03-15T14:15:37.074Z,60.01
2023-03-15T14:18:20.626Z,59.13
2023-03-15T14:21:01.675Z,59.49
2023-03-15T14:23:37.598Z,59.60
2023-03-15T14:26:19.079Z,60.46
2023-03-15T14:28:56.214Z,60.87
2023-03-15T14:31:34.741Z,60.92
2023-03-15T14:34:20.058Z,59.69
2023-03-15T14:36:59.996Z,58.68
2023-03-15T14:39:39.481Z,57.49
2023-03-15T14:42:14.521Z,56.52
2023-03-15T14:44:46.902Z,57.03
2023-03-15T14:47:20.820Z,57.46
2023-03-15T14:49:53.773Z,57.46
2023-03-15T14:52:27.690Z,57.42
2023-03-15T14:55:00.299Z,56.64
2023-03-15T14:57:32.991Z,55.80
2023-03-15T15:00:10.956Z,54.88
2023-03-15T15:02:44.848Z,54.41
2023-03-15T15:05:24.747Z,54.44
2023-03-15T15:08:04.533Z,53.81
2023-03-15T15:10:38.088Z,52.86
2023-03-15T15:13:16.267Z,52.47
2023-03-15T15:15:55.575Z,51.69
2023-03-15T15:18:31.152Z,50.69
2023-03-15T15:21:03.277Z,50.71
2023-03-15T15:23:54.912Z,51.07
2023-03-15T15:26:32.030Z,50.80
2023-03-15T15:29:04.954Z,50.60
2023-03-15T15:31:38.586Z,50.40
2023-03-15T15:34:12.151Z,49.89
2023-03-15T15:36:46.710Z,50.16
2023-03-15T15:39:22.916Z,50.15
2023-03-15T15:41:55.585Z,50.04
2023-03-15T15:44:28.088Z,50.24
2023-03-15T15:47:01.303Z,50.45
2023-03-15T15:49:34.242Z,50.05
2023-03-15T15:52:07.299Z,49.95
2023-03-15T15:54:39.764Z,49.53
2023-03-15T15:57:15.031Z,49.06
2023-03-15T15:59:47.926Z,49.18
2023-03-15T16:02:22.479Z,49.36
2023-03-15T16:04:53.723Z,49.84
2023-03-15T16:07:27.433Z,50.14
2023-03-15T16:10:01.854Z,50.92
2023-03-15T16:12:34.963Z,51.08
2023-03-15T16:15:08.850Z,51.09
2023-03-15T16:17:41.861Z,51.42
2023-03-15T16:20:17.003Z,51.74
2023-03-15T16:22:52.272Z,51.88
2023-03-15T16:25:29.862Z,51.73
2023-03-15T16:28:04.429Z,51.95
2023-03-15T16:30:37.445Z,52.17
2023-03-15T16:33:16.295Z,52.35
2023-03-15T16:35:50.592Z,52.25
2023-03-15T16:38:28.683Z,52.55
2023-03-15T16:41:02.976Z,52.86
2023-03-15T16:43:35.693Z,52.85
2023-03-15T16:51:28.417Z,53.71
2023-03-15T16:54:14.922Z,53.81
2023-03-15T16:56:49.478Z,54.18
2023-03-15T16:59:22.288Z,54.68
2023-03-15T17:01:55.112Z,54.46
2023-03-15T17:04:27.990Z,54.76
2023-03-15T17:07:01.569Z,55.14
2023-03-15T17:09:34.536Z,54.57
2023-03-15T17:12:07.942Z,54.27
2023-03-15T17:14:41.917Z,54.51
2023-03-15T17:17:15.301Z,54.42
2023-03-15T17:19:48.344Z,54.46
2023-03-15T17:22:22.790Z,54.45
2023-03-15T17:24:56.205Z,54.76
2023-03-15T17:27:34.179Z,54.57
2023-03-15T17:30:17.646Z,54.28
2023-03-15T17:32:54.851Z,54.47
2023-03-15T17:35:33.874Z,54.84
2023-03-15T17:38:14.989Z,54.90
2023-03-15T17:40:47.956Z,55.35
2023-03-15T17:43:21.425Z,55.85
2023-03-15T17:45:55.763Z,56.61
2023-03-15T17:48:30.278Z,57.10
2023-03-15T17:51:04.049Z,57.34
2023-03-15T17:53:37.268Z,57.45
2023-03-15T17:56:11.739Z,57.35
2023-03-15T17:58:47.150Z,57.54
2023-03-15T18:01:25.210Z,57.48
2023-03-15T18:03:58.815Z,57.53
2023-03-15T18:06:32.274Z,57.43
2023-03-15T18:09:05.638Z,57.09
2023-03-15T18:11:42.474Z,56.38
2023-03-15T18:14:19.026Z,56.37
2023-03-15T18:16:52.039Z,56.94
2023-03-15T18:19:25.558Z,56.91
2023-03-15T18:21:59.464Z,57.16
2023-03-15T18:24:34.514Z,57.06
2023-03-15T18:27:07.513Z,57.07
2023-03-15T18:29:40.724Z,57.40
2023-03-15T18:32:14.595Z,57.24
2023-03-15T18:34:47.347Z,57.27
2023-03-15T18:37:21.262Z,57.53
2023-03-15T18:39:54.951Z,57.38
2023-03-15T18:42:28.602Z,57.35
2023-03-15T18:45:01.605Z,56.98
2023-03-15T18:47:34.846Z,56.94
2023-03-15T18:50:10.888Z,57.00
2023-03-15T18:52:46.491Z,57.56
2023-03-15T18:55:23.810Z,57.77
2023-03-15T18:57:57.866Z,58.07
2023-03-15T19:00:36.238Z,58.37
2023-03-15T19:03:10.666Z,58.56
2023-03-15T19:05:44.399Z,58.74
2023-03-15T19:08:17.164Z,58.81
2023-03-15T19:10:51.502Z,58.58
2023-03-15T19:13:24.916Z,58.12
2023-03-15T19:15:58.120Z,57.87
2023-03-15T19:18:32.365Z,57.76
2023-03-15T19:21:05.126Z,57.50
2023-03-15T19:23:37.942Z,57.36
2023-03-15T19:26:11.005Z,57.47
2023-03-15T19:28:43.841Z,57.31
2023-03-15T19:31:16.529Z,57.25
2023-03-15T19:33:49.271Z,57.20
2023-03-15T19:36:22.212Z,57.15
2023-03-15T19:38:55.046Z,56.99
2023-03-15T19:41:27.923Z,56.78
2023-03-15T19:44:03.418Z,57.24
2023-03-15T19:46:39.630Z,56.84
2023-03-15T19:49:12.717Z,56.67
2023-03-15T19:51:45.346Z,56.82
2023-03-15T19:54:18.055Z,56.78
2023-03-15T19:56:50.964Z,56.45
2023-03-15T19:59:23.636Z,57.11
2023-03-15T20:01:57.025Z,57.68
2023-03-15T20:04:29.551Z,57.67
2023-03-15T20:07:02.445Z,57.35
2023-03-15T20:09:39.230Z,57.46
2023-03-15T20:12:14.460Z,57.92
2023-03-15T20:14:47.608Z,57.43
2023-03-15T20:17:21.754Z,57.51
2023-03-15T20:19:54.829Z,57.62
2023-03-15T20:22:27.832Z,57.80
2023-03-15T20:25:01.488Z,57.82
2023-03-15T20:27:36.459Z,57.63
2023-03-15T20:30:12.727Z,57.50
2023-03-15T20:32:45.775Z,57.48
2023-03-15T20:35:18.525Z,57.44
2023-03-15T20:37:53.161Z,57.98
2023-03-15T20:40:24.575Z,58.25
2023-03-15T20:42:57.712Z,58.47
2023-03-15T20:45:31.990Z,58.59
2023-03-15T20:48:05.246Z,58.75
2023-03-15T20:50:38.288Z,59.00
2023-03-15T20:53:11.403Z,59.64
2023-03-15T20:55:44.747Z,59.73
2023-03-15T20:58:17.795Z,59.67
2023-03-15T21:00:50.878Z,59.64
2023-03-15T21:03:24.287Z,59.80
2023-03-15T21:05:56.760Z,59.94
2023-03-15T21:08:29.649Z,59.95
2023-03-15T21:11:02.295Z,59.73
2023-03-15T21:13:36.806Z,59.93
2023-03-15T21:16:08.493Z,60.21
2023-03-15T21:18:47.909Z,60.59
2023-03-15T21:21:21.858Z,60.60
2023-03-15T21:23:54.982Z,60.82
2023-03-15T21:26:27.944Z,61.01
2023-03-15T21:29:00.640Z,61.20
2023-03-15T21:31:36.622Z,61.82
2023-03-15T21:34:09.731Z,62.04
2023-03-15T21:36:42.434Z,62.29
2023-03-15T21:39:14.972Z,62.40
2023-03-15T21:41:47.920Z,62.49
2023-03-15T21:44:21.178Z,62.53
2023-03-15T21:46:54.243Z,62.77
2023-03-15T21:49:28.335Z,62.73
2023-03-15T21:52:02.674Z,62.67
2023-03-15T21:54:36.569Z,62.64
2023-03-15T21:57:09.096Z,62.44
2023-03-15T21:59:42.791Z,62.45
2023-03-15T22:02:16.827Z,62.39
2023-03-15T22:04:49.509Z,62.42
2023-03-15T22:07:22.064Z,62.32
2023-03-15T22:09:54.556Z,62.16
2023-03-15T22:12:27.348Z,62.13
2023-03-15T22:15:05.730Z,61.70
2023-03-15T22:17:39.361Z,61.24
2023-03-15T22:20:16.812Z,61.28
2023-03-15T22:22:50.754Z,61.07
2023-03-15T22:25:23.323Z,61.10
2023-03-15T22:27:55.985Z,60.66
2023-03-15T22:30:28.521Z,60.46
2023-03-15T22:33:01.180Z,60.23
2023-03-15T22:35:33.798Z,60.06
2023-03-15T22:38:10.120Z,59.73
2023-03-15T22:40:44.094Z,59.61
2023-03-15T22:43:16.973Z,59.51
2023-03-15T22:45:49.420Z,59.49
2023-03-15T22:48:22.929Z,59.18
2023-03-15T22:51:00.952Z,59.23
2023-03-15T22:53:33.916Z,59.54
2023-03-15T22:56:06.764Z,60.06
2023-03-15T22:58:39.781Z,59.96
2023-03-15T23:01:12.323Z,59.76
2023-03-15T23:03:44.892Z,59.81
2023-03-15T23:06:17.318Z,59.74
2023-03-15T23:08:49.784Z,60.03
2023-03-15T23:11:22.239Z,60.03
2023-03-15T23:13:54.904Z,60.05
2023-03-15T23:16:29.901Z,59.73
2023-03-15T23:19:05.068Z,59.68
2023-03-15T23:21:38.062Z,59.52
2023-03-15T23:24:13.903Z,59.54
2023-03-15T23:26:46.429Z,59.75
2023-03-15T23:29:18.804Z,60.25
2023-03-15T23:31:51.293Z,60.33
2023-03-15T23:34:24.231Z,60.32
2023-03-15T23:36:56.874Z,60.75
2023-03-15T23:39:29.903Z,60.53
2023-03-15T23:42:02.339Z,60.63
2023-03-15T23:44:37.560Z,60.67
2023-03-15T23:47:12.424Z,60.66
2023-03-15T23:49:45.284Z,60.68
2023-03-15T23:52:18.607Z,60.58
2023-03-15T23:54:54.571Z,60.84
2023-03-15T23:57:28.508Z,61.00
